Terminal Aerodrome Forecast
Issued by NWS Paducah, KY

Home | Current Version | Previous Version | Text Only | Print | Product List | Glossary On
Versions: 1 2 3 4 5 6 7 8 9 10 11 12 13 14 15 16 17 18 19
000
FTUS43 KPAH 300200 AAA
TAFPAH
TAF AMD
KPAH 300206Z 3002/3024 34011G18KT P6SM OVC035
      TEMPO 3002/3005 32005KT OVC040
     FM300515 34006G18KT P6SM OVC026
     FM300830 34009G16KT P6SM OVC019
     FM301430 36007KT P6SM OVC022
     FM302000 01005KT P6SM SCT022
     FM302200 36003KT P6SM SKC=

USA.gov is the U.S. government's official web portal to all federal, state and local government web resources and services.